Pagrindinis puslapis
METAR-TAF:

METAR-TAF

Oro uostai :

Skaka, Saudo Arabija

platuma: 29-47N, ilguma: 040-06E, Aukštis: 689 m

Dabartinis oras

Ataskaita buvo paskelbta 37 minutes, ne 18:00 UTC
Vėjas 12 kt iš Šiaurės/Šiaurės Vakarų
Temperatūra 20°C
Drėgmė 19%
Slėgis 1018 hPa
Matomumas 10 km arba daugiau
nėra debesų žemiau 1500 m ir nėra kamuolinių lietaus debesų

METAR: OESK 121800Z 33012KT CAVOK 20/M04 Q1018

Laikas: 21:37 (18:37 UTC)

Prognozė

Ataskaita buvo paskelbta 7 valandos ir 37 minutes, ne 11:00 UTC
Prognozė galioja nuo 12 metu 12 UTC su 13 metu 18 UTC
Vėjas 10 kt iš Šiaurės
Matomumas: 8000 m
Tapsmas
nuo 12 metu 18 UTC su 12 metu 20 UTC
Vėjas 3 kt nuo kintamojo kryptimis
Matomumas 10 km arba daugiau
nėra debesų žemiau 1500 m ir nėra kamuolinių lietaus debesų
Tapsmas
nuo 13 metu 06 UTC su 13 metu 08 UTC
Vėjas 10 kt iš Šiaurės/Šiaurės Vakarų

TAF: OESK 121100Z 1212/1318 36010KT 8000 NSC BECMG 1218/1220 VRB03KT CAVOK BECMG 1306/1308 34010KT

Orai ataskaitas ir orų prognozės (METAR, TAF).

turimą stotys yra geltonos ir raudonos taškus žemėlapyje.

Perkelti pele per norėdami pamatyti stoties vardą.

Tada spustelėkite, norėdami matyti oro stebėjimo ir prognozės.

Norėdami pakeisti žemėlapį: spustelėkite ant žalios mygtukų su juodo kryžiaus žemyn,; žalią mygtuką su brūkšneliu, jei norite nutolinti; arba žalių rodyklių gretimoms žemėlapius.


METAR-TAF: